Time;durP1;ratioP1;P1;durP2;ratioP2;P2;SDS_P1;SDS_P2;PMS_P1;PMS_P2;Temp;Humidity;BMP_temperature;BMP_pressure;BME280_temperature;BME280_humidity;BME280_pressure;Samples;Min_cycle;Max_cycle;Signal;HPM_P1;HPM_P2
2021/04/05 00:00:41;;;;;;;4.30;3.90;;;3.50;99.90;;;;;;4861690;29;20403;-76
2021/04/05 00:03:08;;;;;;;5.00;4.23;;;3.50;99.90;;;;;;4861121;29;20413;-76
2021/04/05 00:05:37;;;;;;;4.90;3.80;;;3.50;99.90;;;;;;4869057;29;20776;-75
2021/04/05 00:08:04;;;;;;;4.65;4.10;;;3.50;99.90;;;;;;4885207;29;20402;-74
2021/04/05 00:10:50;;;;;;;4.28;3.78;;;3.40;99.90;;;;;;4877181;29;20423;-77
2021/04/05 00:13:18;;;;;;;4.30;3.90;;;3.40;99.90;;;;;;4866123;29;20433;-79
2021/04/05 00:15:44;;;;;;;5.72;3.90;;;3.40;99.90;;;;;;4877693;29;20410;-77
2021/04/05 00:18:10;;;;;;;5.40;4.40;;;3.30;99.90;;;;;;4848543;29;20474;-78
2021/04/05 00:20:38;;;;;;;4.20;3.80;;;3.30;99.90;;;;;;4882112;29;21058;-77
2021/04/05 00:23:04;;;;;;;4.00;3.70;;;3.30;99.90;;;;;;4861541;29;20416;-78
2021/04/05 00:25:30;;;;;;;5.35;4.35;;;3.30;99.90;;;;;;4863330;29;20410;-78
2021/04/05 00:27:56;;;;;;;4.38;3.97;;;3.30;99.90;;;;;;4858940;29;20508;-77
2021/04/05 00:30:25;;;;;;;5.13;4.23;;;3.20;99.90;;;;;;4870103;29;20469;-78
2021/04/05 00:32:53;;;;;;;5.15;4.38;;;3.20;99.90;;;;;;4882795;29;20408;-77
2021/04/05 00:35:19;;;;;;;5.40;4.32;;;3.10;99.90;;;;;;4851871;29;20437;-77
2021/04/05 00:37:46;;;;;;;6.25;4.30;;;3.10;99.90;;;;;;4879450;29;20398;-77
2021/04/05 00:40:13;;;;;;;4.88;4.40;;;3.10;99.90;;;;;;4880819;29;20441;-76
2021/04/05 00:42:39;;;;;;;4.83;4.23;;;3.00;99.90;;;;;;4886529;29;20913;-78
2021/04/05 00:45:09;;;;;;;6.13;4.40;;;3.00;99.90;;;;;;4861989;29;20418;-76
2021/04/05 00:47:39;;;;;;;4.82;4.35;;;3.00;99.90;;;;;;4861127;29;20407;-77
2021/04/05 00:50:34;;;;;;;5.03;4.30;;;3.00;99.90;;;;;;4862308;29;20429;-77
2021/04/05 00:53:08;;;;;;;4.93;4.22;;;3.00;99.90;;;;;;4861320;29;20744;-77
2021/04/05 00:55:33;;;;;;;4.50;3.75;;;3.00;99.90;;;;;;4869676;29;20486;-78
2021/04/05 00:57:59;;;;;;;6.45;4.55;;;3.00;99.90;;;;;;4867888;29;20443;-77
2021/04/05 01:00:40;;;;;;;5.22;4.47;;;3.00;99.90;;;;;;4878570;29;20497;-77
2021/04/05 01:03:07;;;;;;;4.72;4.13;;;3.00;99.90;;;;;;4869229;29;20409;-77
2021/04/05 01:05:33;;;;;;;4.50;4.10;;;3.00;99.90;;;;;;4879735;29;20869;-78
2021/04/05 01:07:59;;;;;;;6.30;4.80;;;3.00;99.90;;;;;;4875492;29;20919;-77
2021/04/05 01:10:25;;;;;;;4.75;4.28;;;3.00;99.90;;;;;;4867491;29;20430;-78
2021/04/05 01:12:50;;;;;;;4.50;4.10;;;3.00;99.90;;;;;;4868887;29;20399;-77
2021/04/05 01:15:17;;;;;;;5.47;4.50;;;3.00;99.90;;;;;;4853398;29;20424;-78
2021/04/05 01:17:42;;;;;;;6.57;4.30;;;3.00;99.90;;;;;;4890820;29;20436;-78
2021/04/05 01:20:12;;;;;;;4.63;4.23;;;3.00;99.90;;;;;;4895951;29;20447;-78
2021/04/05 01:22:38;;;;;;;5.20;4.25;;;3.00;99.90;;;;;;4850124;29;20416;-78
2021/04/05 01:25:07;;;;;;;6.07;4.20;;;3.00;99.90;;;;;;4893240;29;20437;-78
2021/04/05 01:27:33;;;;;;;4.55;4.15;;;3.00;99.90;;;;;;4876253;29;20500;-78
2021/04/05 01:29:58;;;;;;;4.60;4.20;;;3.00;99.90;;;;;;4881692;29;20426;-76
2021/04/05 01:32:24;;;;;;;6.67;4.50;;;3.00;99.90;;;;;;4852161;29;20407;-77
2021/04/05 01:34:50;;;;;;;4.88;4.38;;;3.00;99.90;;;;;;4868129;29;20398;-77
2021/04/05 01:37:15;;;;;;;6.22;4.57;;;3.00;99.90;;;;;;4868338;29;20403;-79
2021/04/05 01:39:41;;;;;;;4.53;4.13;;;3.00;99.90;;;;;;4875008;29;20492;-78
2021/04/05 01:42:07;;;;;;;5.77;4.47;;;3.10;99.90;;;;;;4882906;29;20404;-77
2021/04/05 01:44:35;;;;;;;4.63;4.23;;;3.00;99.90;;;;;;4880960;29;20847;-77
2021/04/05 01:47:01;;;;;;;5.23;4.63;;;3.00;99.90;;;;;;4893085;29;20411;-77
2021/04/05 01:49:28;;;;;;;5.67;4.70;;;3.00;99.90;;;;;;4881911;29;20415;-79
2021/04/05 01:51:53;;;;;;;5.00;4.40;;;3.00;99.90;;;;;;4884513;29;20780;-78
2021/04/05 01:54:19;;;;;;;5.20;4.70;;;3.00;99.90;;;;;;4873454;29;20462;-77
2021/04/05 01:56:45;;;;;;;5.77;5.07;;;3.00;99.90;;;;;;4874228;29;20454;-77
2021/04/05 01:59:11;;;;;;;5.17;4.67;;;3.00;99.90;;;;;;4867005;29;20406;-77
2021/04/05 02:01:36;;;;;;;5.50;4.63;;;3.00;99.90;;;;;;4900172;29;20426;-77
2021/04/05 02:04:03;;;;;;;5.50;4.90;;;3.00;99.90;;;;;;4883929;29;20442;-77
2021/04/05 02:06:32;;;;;;;5.07;4.57;;;3.00;99.90;;;;;;4864825;29;20467;-78
2021/04/05 02:08:58;;;;;;;5.85;4.47;;;3.00;99.90;;;;;;4847913;29;20435;-78
2021/04/05 02:11:29;;;;;;;7.97;4.78;;;3.00;99.90;;;;;;4847744;29;20405;-78
2021/04/05 02:13:56;;;;;;;6.18;4.88;;;3.00;99.90;;;;;;4881242;29;20403;-77
2021/04/05 02:16:22;;;;;;;7.05;4.80;;;3.00;99.90;;;;;;4864728;29;20485;-77
2021/04/05 02:18:48;;;;;;;5.75;4.40;;;3.00;99.90;;;;;;4858581;29;20429;-77
2021/04/05 02:21:14;;;;;;;5.70;4.90;;;3.00;99.90;;;;;;4880810;29;20398;-77
2021/04/05 02:23:41;;;;;;;6.18;4.60;;;3.00;99.90;;;;;;4879773;29;20402;-78
2021/04/05 02:26:07;;;;;;;5.73;4.83;;;3.10;99.90;;;;;;4862532;29;20415;-78
2021/04/05 02:28:40;;;;;;;6.35;4.75;;;3.10;99.90;;;;;;4882039;29;20815;-77
2021/04/05 02:31:08;;;;;;;8.13;5.03;;;3.10;99.90;;;;;;4873075;29;20490;-78
2021/04/05 02:33:41;;;;;;;6.38;5.10;;;3.10;99.90;;;;;;4889063;29;20428;-78
2021/04/05 02:36:08;;;;;;;5.50;5.00;;;3.10;99.90;;;;;;4877684;29;20429;-77
2021/04/05 02:38:41;;;;;;;5.93;4.68;;;3.20;99.90;;;;;;4891322;29;20405;-78
2021/04/05 02:41:07;;;;;;;5.82;4.65;;;3.20;99.90;;;;;;4876450;29;20389;-77
2021/04/05 02:43:33;;;;;;;5.95;5.25;;;3.20;99.90;;;;;;4865278;29;20405;-77
2021/04/05 02:45:59;;;;;;;6.75;5.10;;;3.20;99.90;;;;;;4876988;29;20407;-77
2021/04/05 02:48:25;;;;;;;6.28;4.93;;;3.20;99.90;;;;;;4880475;29;20422;-77
2021/04/05 02:50:50;;;;;;;6.72;5.20;;;3.20;99.90;;;;;;4863790;29;20425;-76
2021/04/05 02:53:16;;;;;;;7.20;4.97;;;3.20;99.90;;;;;;4870906;29;20400;-79
2021/04/05 02:55:42;;;;;;;5.32;4.70;;;3.20;99.90;;;;;;4842150;29;20410;-79
2021/04/05 02:58:08;;;;;;;8.10;4.75;;;3.40;99.90;;;;;;4844476;29;20414;-79
2021/04/05 03:00:35;;;;;;;5.47;4.82;;;3.20;99.90;;;;;;4876875;29;20880;-78
2021/04/05 03:03:01;;;;;;;5.60;4.53;;;3.20;99.90;;;;;;4860574;29;20460;-79
2021/04/05 03:05:27;;;;;;;9.67;5.23;;;3.20;99.90;;;;;;4839831;29;20417;-80
2021/04/05 03:07:53;;;;;;;5.57;4.82;;;3.30;99.90;;;;;;4865452;29;20455;-80
2021/04/05 03:10:20;;;;;;;5.80;4.75;;;3.20;99.90;;;;;;4863067;29;20430;-78
2021/04/05 03:12:48;;;;;;;6.32;4.57;;;3.30;99.90;;;;;;4860745;29;20536;-78
2021/04/05 03:15:15;;;;;;;6.93;5.03;;;3.40;99.90;;;;;;4874446;29;20435;-78
2021/04/05 03:17:40;;;;;;;6.78;4.85;;;3.30;99.90;;;;;;4878380;29;20407;-78
2021/04/05 03:20:17;;;;;;;5.13;4.43;;;3.30;99.90;;;;;;4859583;29;20449;-79
2021/04/05 03:22:43;;;;;;;6.90;4.43;;;3.30;99.90;;;;;;4875798;29;20444;-78
2021/04/05 03:25:16;;;;;;;4.85;4.18;;;3.30;99.90;;;;;;4844013;29;20408;-78
2021/04/05 03:27:42;;;;;;;5.60;4.75;;;3.30;99.90;;;;;;4868165;29;20904;-78
2021/04/05 03:30:10;;;;;;;7.50;4.70;;;3.30;99.90;;;;;;4889594;29;20433;-78
2021/04/05 03:32:37;;;;;;;7.47;4.82;;;3.30;99.90;;;;;;4860684;29;20408;-79
2021/04/05 03:35:03;;;;;;;8.03;5.30;;;3.30;99.90;;;;;;4877776;29;20413;-78
2021/04/05 03:37:29;;;;;;;5.00;4.47;;;3.30;99.90;;;;;;4864937;29;20422;-78
2021/04/05 03:39:55;;;;;;;7.17;4.63;;;3.30;99.90;;;;;;4880244;29;20392;-78
2021/04/05 03:42:34;;;;;;;7.67;4.67;;;3.40;99.90;;;;;;4891122;29;20937;-78
2021/04/05 03:45:19;;;;;;;7.43;5.23;;;3.30;99.90;;;;;;4846442;29;20411;-79
2021/04/05 03:48:04;;;;;;;5.88;4.22;;;3.40;99.90;;;;;;4888167;29;20906;-79
2021/04/05 03:50:39;;;;;;;4.93;4.13;;;3.30;99.90;;;;;;4886464;29;20426;-77
2021/04/05 03:53:17;;;;;;;7.95;4.90;;;3.40;99.90;;;;;;4890540;29;20405;-77
2021/04/05 03:55:43;;;;;;;5.22;4.57;;;3.50;99.90;;;;;;4851189;29;20407;-78
2021/04/05 03:58:09;;;;;;;5.55;4.55;;;3.50;99.90;;;;;;4855826;29;20986;-79
2021/04/05 04:00:35;;;;;;;8.18;4.93;;;3.60;99.90;;;;;;4860488;29;20540;-78
2021/04/05 04:03:01;;;;;;;6.23;5.07;;;3.60;99.90;;;;;;4880626;29;20979;-79
2021/04/05 04:05:32;;;;;;;6.00;5.13;;;3.70;99.90;;;;;;4874736;29;20415;-78
2021/04/05 04:08:44;;;;;;;7.90;5.20;;;3.80;99.90;;;;;;4851650;29;20410;-78
2021/04/05 04:10:48;;;;;;;9.43;5.18;;;3.80;99.90;;;;;;4873946;29;20412;-80
2021/04/05 04:13:14;;;;;;;7.60;5.38;;;3.90;99.90;;;;;;4858867;29;20412;-80
2021/04/05 04:15:40;;;;;;;9.18;5.82;;;3.90;99.90;;;;;;4888476;29;20419;-80
2021/04/05 04:18:05;;;;;;;6.97;5.87;;;4.00;99.90;;;;;;4873366;29;20423;-79
2021/04/05 04:20:31;;;;;;;6.47;5.28;;;4.00;99.90;;;;;;4890867;29;20485;-81
2021/04/05 04:22:57;;;;;;;6.85;5.35;;;4.10;99.90;;;;;;4867476;29;20404;-81
2021/04/05 04:25:46;;;;;;;5.97;4.88;;;4.10;99.90;;;;;;4866191;29;20849;-80
2021/04/05 04:28:15;;;;;;;5.73;4.43;;;4.20;99.90;;;;;;4872205;29;20406;-80
2021/04/05 04:30:41;;;;;;;6.60;4.97;;;4.30;99.90;;;;;;4875762;29;20497;-78
2021/04/05 04:33:08;;;;;;;8.13;4.83;;;4.20;99.90;;;;;;4858648;29;20504;-79
2021/04/05 04:35:34;;;;;;;6.10;4.93;;;4.20;99.90;;;;;;4884410;29;20401;-79
2021/04/05 04:38:00;;;;;;;7.13;4.72;;;4.30;99.90;;;;;;4879416;29;20472;-79
2021/04/05 04:40:27;;;;;;;8.77;5.10;;;4.30;99.90;;;;;;4864760;29;20522;-77
2021/04/05 04:42:57;;;;;;;7.05;4.45;;;4.30;99.90;;;;;;4874848;29;20440;-78
2021/04/05 04:45:23;;;;;;;8.50;4.57;;;4.30;99.90;;;;;;4851738;29;20399;-78
2021/04/05 04:47:53;;;;;;;7.45;4.53;;;4.30;99.90;;;;;;4865295;29;20838;-79
2021/04/05 04:50:19;;;;;;;8.17;4.40;;;4.40;99.90;;;;;;4845208;29;20885;-78
2021/04/05 04:52:45;;;;;;;7.65;4.50;;;4.40;99.90;;;;;;4876787;29;20413;-78
2021/04/05 04:55:11;;;;;;;5.97;4.50;;;4.40;99.90;;;;;;4856311;29;20414;-79
2021/04/05 04:57:37;;;;;;;6.90;4.38;;;4.50;99.90;;;;;;4844107;29;20471;-78
2021/04/05 05:00:06;;;;;;;6.37;4.70;;;4.60;99.90;;;;;;4861818;29;20403;-80
2021/04/05 05:02:34;;;;;;;7.85;4.43;;;4.60;99.90;;;;;;4842397;29;20497;-79
2021/04/05 05:04:59;;;;;;;5.53;4.70;;;4.60;99.90;;;;;;4873738;29;20438;-79
2021/04/05 05:07:26;;;;;;;5.47;4.20;;;4.60;99.90;;;;;;4873610;29;20405;-78
2021/04/05 05:09:52;;;;;;;6.05;4.60;;;4.70;99.90;;;;;;4856903;29;20447;-78
2021/04/05 05:12:17;;;;;;;4.10;3.70;;;4.70;99.90;;;;;;4878745;29;20416;-79
2021/04/05 05:14:43;;;;;;;4.50;4.00;;;4.80;99.90;;;;;;4837033;29;20419;-79
2021/04/05 05:17:09;;;;;;;5.40;4.03;;;4.80;99.90;;;;;;4864705;29;20402;-79
2021/04/05 05:19:36;;;;;;;5.55;4.43;;;4.80;99.90;;;;;;4877246;29;20398;-79
2021/04/05 05:22:02;;;;;;;9.48;4.70;;;4.80;99.90;;;;;;4866131;29;20402;-78
2021/04/05 05:24:29;;;;;;;5.85;4.35;;;4.80;99.90;;;;;;4893219;29;20919;-78
2021/04/05 05:26:55;;;;;;;7.47;4.50;;;4.80;99.90;;;;;;4876598;29;20427;-79
2021/04/05 05:29:21;;;;;;;7.07;4.78;;;4.80;99.90;;;;;;4877050;29;20421;-79
2021/04/05 05:31:47;;;;;;;5.22;4.47;;;4.90;99.90;;;;;;4868131;29;20398;-79
2021/04/05 05:34:18;;;;;;;5.53;4.10;;;4.90;99.90;;;;;;4877485;29;20928;-79
2021/04/05 05:36:44;;;;;;;6.72;4.63;;;5.00;99.90;;;;;;4857697;29;20440;-78
2021/04/05 05:39:11;;;;;;;8.07;4.55;;;4.90;99.90;;;;;;4855180;29;20415;-78
2021/04/05 05:42:01;;;;;;;7.72;4.93;;;4.90;99.90;;;;;;4834079;29;20414;-79
2021/04/05 05:44:34;;;;;;;6.38;4.60;;;5.00;99.90;;;;;;4873700;29;20742;-79
2021/04/05 05:47:21;;;;;;;6.90;4.65;;;5.00;99.90;;;;;;4858715;29;20795;-78
2021/04/05 05:50:06;;;;;;;6.40;4.60;;;5.10;99.90;;;;;;4859823;29;20420;-79
2021/04/05 05:52:52;;;;;;;7.30;4.80;;;5.10;99.90;;;;;;4868348;29;20415;-78
2021/04/05 05:55:36;;;;;;;6.88;4.65;;;5.20;99.90;;;;;;4883793;29;20408;-80
2021/04/05 05:58:11;;;;;;;5.20;4.70;;;5.20;99.90;;;;;;4895463;29;20415;-79
2021/04/05 06:00:40;;;;;;;8.43;4.47;;;5.30;99.90;;;;;;4894910;29;20494;-79
2021/04/05 06:03:08;;;;;;;8.88;4.85;;;5.30;99.90;;;;;;4861254;29;20763;-79
2021/04/05 06:05:54;;;;;;;7.43;5.13;;;5.30;99.90;;;;;;4895580;29;20479;-79
2021/04/05 06:08:32;;;;;;;8.52;5.03;;;5.40;99.90;;;;;;4860665;29;20929;-79
2021/04/05 06:11:05;;;;;;;6.53;4.53;;;5.40;99.90;;;;;;4863474;29;20418;-80
2021/04/05 06:13:39;;;;;;;10.02;5.07;;;5.50;99.90;;;;;;4868142;29;20507;-79
2021/04/05 06:16:19;;;;;;;7.85;5.22;;;5.60;99.90;;;;;;4888417;29;20754;-80
2021/04/05 06:19:18;;;;;;;7.15;5.00;;;5.70;99.90;;;;;;4860227;29;20445;-80
2021/04/05 06:22:26;;;;;;;6.15;4.88;;;5.70;99.90;;;;;;4894740;29;20749;-79
2021/04/05 06:25:16;;;;;;;7.00;5.20;;;5.80;99.90;;;;;;4888320;29;20757;-79
2021/04/05 06:28:09;;;;;;;6.63;5.25;;;5.90;99.90;;;;;;4861121;29;20404;-80
2021/04/05 06:30:46;;;;;;;7.45;4.75;;;6.00;99.90;;;;;;4872099;29;20510;-82
2021/04/05 06:33:26;;;;;;;6.25;5.03;;;6.10;99.90;;;;;;4876616;29;20414;-79
2021/04/05 06:36:07;;;;;;;5.20;4.70;;;6.10;99.90;;;;;;4851577;29;20430;-78
2021/04/05 06:38:41;;;;;;;5.30;4.77;;;6.10;99.90;;;;;;4882750;29;20968;-79
2021/04/05 06:41:28;;;;;;;7.82;5.00;;;6.20;99.90;;;;;;4894364;29;20415;-79
2021/04/05 06:44:01;;;;;;;7.80;5.27;;;6.20;99.90;;;;;;4859694;29;20784;-80
2021/04/05 06:47:04;;;;;;;6.70;5.10;;;6.30;99.90;;;;;;4878486;29;20915;-80
2021/04/05 06:49:52;;;;;;;7.35;5.32;;;6.40;99.90;;;;;;4893495;29;20433;-79
2021/04/05 06:52:42;;;;;;;7.30;5.43;;;6.50;99.90;;;;;;4859066;29;20766;-81
2021/04/05 06:55:20;;;;;;;6.00;5.10;;;6.60;99.90;;;;;;4882255;29;20462;-79
2021/04/05 06:57:49;;;;;;;11.10;5.47;;;6.60;99.90;;;;;;4874311;29;20443;-79
2021/04/05 07:00:50;;;;;;;5.10;4.60;;;6.70;99.90;;;;;;4875277;29;20983;-79
2021/04/05 07:03:26;;;;;;;6.85;5.28;;;6.80;99.90;;;;;;4847451;29;20420;-79
2021/04/05 07:06:04;;;;;;;7.00;5.00;;;6.90;99.90;;;;;;4862940;29;20406;-80
2021/04/05 07:09:08;;;;;;;6.90;5.80;;;6.90;99.90;;;;;;4892980;29;20487;-80
2021/04/05 07:11:55;;;;;;;7.00;5.53;;;6.90;99.90;;;;;;4851308;29;20416;-80
2021/04/05 07:14:53;;;;;;;6.87;4.50;;;6.90;99.90;;;;;;4880828;29;20429;-81
2021/04/05 07:17:22;;;;;;;7.13;5.53;;;7.00;99.90;;;;;;4868327;29;20426;-80
2021/04/05 07:20:08;;;;;;;9.90;5.38;;;7.10;99.90;;;;;;4860604;29;20412;-79
2021/04/05 07:22:55;;;;;;;6.35;5.35;;;7.10;99.90;;;;;;4885431;29;20403;-80
2021/04/05 07:25:22;;;;;;;8.05;5.32;;;7.10;99.90;;;;;;4879738;29;20427;-80
2021/04/05 07:28:07;;;;;;;8.27;5.45;;;7.20;99.90;;;;;;4879007;29;20420;-80
2021/04/05 07:31:04;;;;;;;6.53;5.30;;;7.20;99.90;;;;;;4880136;29;20460;-80
2021/04/05 07:33:38;;;;;;;7.67;5.47;;;7.30;99.90;;;;;;4905036;29;20407;-79
2021/04/05 07:36:38;;;;;;;8.75;5.53;;;7.40;99.90;;;;;;4890704;29;20419;-80
2021/04/05 07:39:41;;;;;;;9.40;5.75;;;7.50;99.90;;;;;;4867275;29;20415;-80
2021/04/05 07:42:33;;;;;;;8.23;5.75;;;7.60;99.90;;;;;;4868555;29;20411;-80
2021/04/05 07:45:27;;;;;;;6.95;5.88;;;7.70;99.90;;;;;;4876938;29;20409;-80
2021/04/05 07:48:28;;;;;;;6.07;5.47;;;7.70;99.90;;;;;;4876744;29;20881;-79
2021/04/05 07:51:05;;;;;;;6.03;5.00;;;7.80;99.90;;;;;;4869772;29;20762;-79
2021/04/05 07:53:42;;;;;;;7.43;5.80;;;7.80;99.90;;;;;;4862730;29;20399;-79
2021/04/05 07:56:13;;;;;;;7.17;6.17;;;7.90;99.90;;;;;;4887285;29;20472;-79
2021/04/05 07:58:45;;;;;;;8.27;5.60;;;8.00;99.90;;;;;;4872028;29;20448;-80
2021/04/05 08:01:25;;;;;;;7.43;5.63;;;8.10;99.90;;;;;;4866945;29;20927;-79
2021/04/05 08:04:19;;;;;;;8.35;5.63;;;8.20;99.90;;;;;;4859134;29;20468;-80
2021/04/05 08:07:06;;;;;;;10.30;6.50;;;8.30;99.90;;;;;;4844290;29;20791;-80
2021/04/05 08:09:37;;;;;;;7.57;6.35;;;8.40;99.90;;;;;;4891147;29;20501;-80
2021/04/05 08:12:14;;;;;;;10.60;7.28;;;8.50;99.90;;;;;;4881868;29;20401;-79
2021/04/05 08:15:07;;;;;;;10.47;7.43;;;8.60;99.90;;;;;;4878675;29;20417;-79
2021/04/05 08:17:43;;;;;;;8.07;6.13;;;8.70;99.90;;;;;;4868015;29;20416;-79
2021/04/05 08:20:19;;;;;;;10.07;7.50;;;8.80;99.90;;;;;;4878877;29;20399;-77
2021/04/05 08:23:07;;;;;;;9.02;6.10;;;8.80;99.90;;;;;;4848024;29;20427;-80
2021/04/05 08:25:55;;;;;;;8.95;7.13;;;8.90;99.90;;;;;;4861704;29;20414;-79
2021/04/05 08:28:36;;;;;;;9.93;6.65;;;8.80;99.90;;;;;;4885153;29;20460;-79
2021/04/05 08:31:24;;;;;;;7.63;6.80;;;8.80;99.90;;;;;;4904627;29;20413;-79
2021/04/05 08:34:19;;;;;;;9.63;7.00;;;8.90;99.90;;;;;;4873308;29;20405;-78
2021/04/05 08:36:46;;;;;;;8.68;5.82;;;9.00;99.90;;;;;;4906439;29;20396;-79
2021/04/05 08:39:13;;;;;;;7.95;6.70;;;9.10;99.90;;;;;;4894630;29;20407;-79
2021/04/05 08:42:02;;;;;;;7.10;6.05;;;9.10;99.90;;;;;;4877823;29;20411;-79
2021/04/05 08:45:13;;;;;;;7.53;6.10;;;9.10;99.90;;;;;;4894040;29;20431;-78
2021/04/05 08:47:41;;;;;;;11.13;7.13;;;9.00;99.90;;;;;;4838952;29;20406;-80
2021/04/05 08:50:09;;;;;;;10.65;6.45;;;9.00;99.90;;;;;;4856727;29;20427;-79
2021/04/05 08:52:43;;;;;;;11.18;6.63;;;8.90;99.90;;;;;;4865838;29;20405;-78
2021/04/05 08:55:12;;;;;;;9.68;6.55;;;8.80;99.90;;;;;;4885539;29;20817;-79
2021/04/05 08:57:46;;;;;;;7.72;6.20;;;8.70;99.90;;;;;;4878224;29;20430;-78
2021/04/05 09:00:13;;;;;;;7.57;6.75;;;8.70;99.90;;;;;;4860389;29;20904;-78
2021/04/05 09:02:40;;;;;;;9.00;6.60;;;8.70;99.90;;;;;;4877114;29;20415;-79
2021/04/05 09:05:12;;;;;;;8.95;7.05;;;8.70;99.90;;;;;;4879650;29;20435;-80
2021/04/05 09:07:57;;;;;;;7.93;6.28;;;8.70;99.90;;;;;;4848241;29;20428;-79
2021/04/05 09:10:39;;;;;;;10.73;6.50;;;8.80;99.90;;;;;;4864799;29;20461;-78
2021/04/05 09:13:07;;;;;;;9.45;7.10;;;8.90;99.90;;;;;;4872694;29;20417;-81
2021/04/05 09:16:07;;;;;;;9.38;7.38;;;8.80;99.90;;;;;;4860907;29;20474;-79
2021/04/05 09:19:12;;;;;;;11.37;7.13;;;8.70;99.90;;;;;;4882954;29;20413;-80
2021/04/05 09:22:15;;;;;;;9.02;7.18;;;8.70;99.90;;;;;;4863150;29;20437;-79
2021/04/05 09:24:44;;;;;;;10.07;6.97;;;8.70;99.90;;;;;;4888216;29;20496;-79
2021/04/05 09:27:13;;;;;;;8.00;6.85;;;8.50;99.90;;;;;;4896849;29;20909;-79
2021/04/05 09:30:12;;;;;;;10.40;7.20;;;8.40;99.90;;;;;;4889167;29;20828;-79
2021/04/05 09:32:38;;;;;;;8.83;7.23;;;8.20;99.90;;;;;;4870035;29;20399;-79
2021/04/05 09:35:03;;;;;;;9.88;7.22;;;8.00;99.90;;;;;;4898220;29;20435;-80
2021/04/05 09:38:11;;;;;;;10.77;7.68;;;7.90;99.90;;;;;;4881411;29;20403;-79
2021/04/05 09:41:08;;;;;;;13.13;8.13;;;7.60;99.90;;;;;;4880704;29;20444;-79
2021/04/05 09:44:11;;;;;;;8.50;7.65;;;7.30;99.90;;;;;;4890209;29;20409;-80
2021/04/05 09:46:43;;;;;;;9.15;7.97;;;7.20;99.90;;;;;;4891453;29;20408;-80
2021/04/05 09:49:48;;;;;;;10.73;7.97;;;7.00;99.90;;;;;;4849987;29;20427;-81
2021/04/05 09:52:34;;;;;;;10.20;8.30;;;6.90;99.90;;;;;;4842247;23;20422;-77
2021/04/05 09:55:12;;;;;;;11.60;8.50;;;6.80;99.90;;;;;;4825322;29;20474;-76
2021/04/05 09:57:38;;;;;;;9.57;7.93;;;6.60;99.90;;;;;;4838765;29;20412;-76
2021/04/05 10:00:12;;;;;;;11.40;8.68;;;6.60;99.90;;;;;;4842820;29;20421;-77
2021/04/05 10:02:44;;;;;;;10.00;8.38;;;6.50;99.90;;;;;;4841020;29;20526;-77
2021/04/05 10:05:11;;;;;;;11.82;9.25;;;6.40;99.90;;;;;;4844038;29;20410;-77
2021/04/05 10:07:42;;;;;;;10.55;8.45;;;6.40;99.90;;;;;;4841460;29;20782;-78
2021/04/05 10:10:10;;;;;;;9.23;8.20;;;6.40;99.90;;;;;;4840773;29;20428;-77
2021/04/05 10:12:36;;;;;;;13.48;8.90;;;6.40;99.90;;;;;;4835875;29;20409;-77
2021/04/05 10:15:03;;;;;;;9.07;8.18;;;6.30;99.90;;;;;;4850290;29;20428;-78
2021/04/05 10:17:29;;;;;;;11.95;8.18;;;6.30;99.90;;;;;;4855520;29;20424;-77
2021/04/05 10:19:58;;;;;;;10.85;8.75;;;6.30;99.90;;;;;;4860471;29;20503;-78
2021/04/05 10:22:24;;;;;;;10.82;8.82;;;6.20;99.90;;;;;;4849427;29;20455;-76
2021/04/05 10:24:52;;;;;;;11.47;8.70;;;6.20;99.90;;;;;;4835934;29;20797;-77
2021/04/05 10:27:21;;;;;;;10.73;8.23;;;6.30;99.90;;;;;;4822730;29;20405;-77
2021/04/05 10:29:48;;;;;;;9.13;8.17;;;6.20;99.90;;;;;;4840412;29;20420;-77
2021/04/05 10:32:17;;;;;;;10.32;8.27;;;6.10;99.90;;;;;;4810993;29;20481;-79
2021/04/05 10:34:45;;;;;;;13.73;8.98;;;6.10;99.90;;;;;;4846099;29;20421;-77
2021/04/05 10:37:16;;;;;;;11.70;9.57;;;6.20;99.90;;;;;;4823921;29;20418;-78
2021/04/05 10:39:49;;;;;;;10.23;7.95;;;6.10;99.90;;;;;;4854264;29;20409;-77
2021/04/05 10:42:22;;;;;;;10.90;9.32;;;6.00;99.90;;;;;;4838022;29;20409;-78
2021/04/05 10:44:53;;;;;;;10.15;7.78;;;6.00;99.90;;;;;;4819203;29;20420;-79
2021/04/05 10:47:22;;;;;;;13.82;8.43;;;6.00;99.90;;;;;;4817593;29;20513;-79
2021/04/05 10:49:49;;;;;;;8.35;7.25;;;6.00;99.90;;;;;;4841085;29;20480;-78
2021/04/05 10:52:26;;;;;;;8.93;6.65;;;6.00;99.90;;;;;;4861387;29;20434;-78
2021/04/05 10:54:52;;;;;;;7.47;6.47;;;5.90;99.90;;;;;;4845298;29;20897;-77
2021/04/05 10:57:36;;;;;;;7.47;6.78;;;5.90;99.90;;;;;;4850833;29;20512;-78
2021/04/05 11:00:09;;;;;;;7.38;6.50;;;5.90;99.90;;;;;;4842607;29;20454;-78
2021/04/05 11:02:37;;;;;;;7.70;6.88;;;5.90;99.90;;;;;;4828279;29;20797;-77
2021/04/05 11:05:07;;;;;;;7.28;6.55;;;5.90;99.90;;;;;;4857271;29;20781;-78
2021/04/05 11:07:33;;;;;;;7.93;7.10;;;6.00;99.90;;;;;;4835515;29;20418;-78
2021/04/05 11:10:00;;;;;;;7.60;6.90;;;6.00;99.90;;;;;;4841204;29;20425;-78
2021/04/05 11:13:13;;;;;;;7.47;6.38;;;6.10;99.90;;;;;;4827916;29;20412;-77
2021/04/05 11:15:42;;;;;;;9.68;6.50;;;6.00;99.90;;;;;;4854070;29;20901;-77
2021/04/05 11:18:12;;;;;;;7.25;6.50;;;6.10;99.90;;;;;;4839938;29;20460;-79
2021/04/05 11:20:39;;;;;;;7.03;6.28;;;6.00;99.90;;;;;;4851898;29;20449;-78
2021/04/05 11:23:09;;;;;;;6.97;6.30;;;6.00;99.90;;;;;;4840588;29;20890;-78
2021/04/05 11:25:36;;;;;;;8.40;6.53;;;6.00;99.90;;;;;;4828834;29;20414;-78
2021/04/05 11:28:10;;;;;;;6.40;5.80;;;6.00;99.90;;;;;;4845425;29;20417;-77
2021/04/05 11:30:38;;;;;;;7.40;6.25;;;5.90;99.90;;;;;;4829883;29;20423;-78
2021/04/05 11:33:04;;;;;;;5.57;5.07;;;5.90;99.90;;;;;;4823958;29;20432;-78
2021/04/05 11:35:32;;;;;;;2.75;2.05;;;5.60;99.90;;;;;;4847570;29;20423;-78
2021/04/05 11:38:03;;;;;;;2.10;1.90;;;5.00;99.90;;;;;;4841778;29;20414;-78
2021/04/05 11:40:32;;;;;;;3.30;1.85;;;4.60;99.90;;;;;;4839932;29;20527;-78
2021/04/05 11:43:09;;;;;;;2.03;1.75;;;4.20;99.90;;;;;;4813508;29;20440;-78
2021/04/05 11:45:41;;;;;;;1.40;1.30;;;4.10;99.90;;;;;;4851969;29;20479;-78
2021/04/05 11:48:18;;;;;;;1.60;1.50;;;4.20;99.90;;;;;;4828349;29;21123;-77
2021/04/05 11:50:44;;;;;;;1.60;1.30;;;4.00;99.90;;;;;;4838000;29;20422;-78
2021/04/05 11:53:48;;;;;;;1.02;1.00;;;4.00;99.90;;;;;;4832130;29;20428;-78
2021/04/05 11:56:15;;;;;;;1.00;1.00;;;4.00;99.90;;;;;;4840695;29;20420;-78
2021/04/05 11:59:18;;;;;;;2.70;1.00;;;3.70;99.90;;;;;;4851952;29;20782;-78
2021/04/05 12:02:00;;;;;;;1.00;1.00;;;3.70;99.90;;;;;;4836006;29;20412;-78
2021/04/05 12:04:39;;;;;;;1.00;1.00;;;3.70;99.90;;;;;;4838335;29;20805;-78
2021/04/05 12:07:18;;;;;;;1.10;1.10;;;3.70;99.90;;;;;;4841100;29;20452;-78
2021/04/05 12:09:46;;;;;;;1.30;1.20;;;3.80;99.90;;;;;;4833514;29;20439;-78
2021/04/05 12:12:24;;;;;;;1.00;1.00;;;3.80;99.90;;;;;;4812237;29;20474;-78
2021/04/05 12:14:54;;;;;;;1.05;1.05;;;3.80;99.90;;;;;;4819716;29;20420;-77
2021/04/05 12:17:21;;;;;;;1.00;1.00;;;3.80;99.90;;;;;;4844460;29;20440;-77
2021/04/05 12:19:47;;;;;;;1.30;1.20;;;3.80;99.90;;;;;;4827134;29;20461;-77
2021/04/05 12:22:13;;;;;;;1.40;1.30;;;3.90;99.90;;;;;;4856869;29;20490;-77
2021/04/05 12:24:45;;;;;;;1.30;1.00;;;4.10;99.90;;;;;;4837178;29;20472;-78
2021/04/05 12:27:12;;;;;;;1.30;1.10;;;4.10;99.90;;;;;;4826798;29;20415;-77
2021/04/05 12:29:38;;;;;;;1.00;1.00;;;4.20;99.90;;;;;;4824592;29;20965;-78
2021/04/05 12:32:05;;;;;;;0.80;0.80;;;4.20;99.90;;;;;;4825916;29;20408;-77
2021/04/05 12:34:33;;;;;;;0.80;0.80;;;4.30;99.90;;;;;;4845590;29;20781;-76
2021/04/05 12:37:00;;;;;;;1.00;1.00;;;4.40;99.90;;;;;;4843425;29;20914;-78
2021/04/05 12:39:32;;;;;;;2.03;1.90;;;4.40;99.90;;;;;;4845340;29;20492;-78
2021/04/05 12:41:58;;;;;;;1.40;1.30;;;4.40;99.90;;;;;;4847687;29;20428;-78
2021/04/05 12:44:30;;;;;;;1.50;1.40;;;4.60;99.90;;;;;;4843241;29;20979;-78
2021/04/05 12:46:58;;;;;;;1.05;1.05;;;4.50;99.90;;;;;;4829439;29;21045;-78
2021/04/05 12:49:29;;;;;;;2.08;1.88;;;4.60;99.90;;;;;;4847945;29;20434;-79
2021/04/05 12:51:59;;;;;;;1.00;1.00;;;4.60;99.90;;;;;;4843117;29;20449;-78
2021/04/05 12:54:26;;;;;;;3.08;1.27;;;4.50;99.90;;;;;;4841310;29;20404;-79
2021/04/05 12:56:52;;;;;;;0.90;0.90;;;4.60;99.90;;;;;;4837934;29;20410;-78
2021/04/05 12:59:27;;;;;;;1.40;1.30;;;4.60;99.90;;;;;;4841433;29;20927;-82
2021/04/05 13:01:55;;;;;;;1.20;1.10;;;4.60;99.90;;;;;;4824378;29;20804;-78
2021/04/05 13:04:25;;;;;;;0.80;0.80;;;4.70;99.90;;;;;;4827710;29;20921;-78
2021/04/05 13:06:56;;;;;;;1.05;1.02;;;4.60;99.90;;;;;;4830998;29;20428;-78
2021/04/05 13:09:24;;;;;;;0.90;0.90;;;4.60;99.90;;;;;;4814768;29;21053;-78
2021/04/05 13:11:58;;;;;;;1.17;1.08;;;4.70;99.90;;;;;;4834174;29;20930;-78
2021/04/05 13:14:41;;;;;;;0.80;0.80;;;4.60;99.90;;;;;;4833000;29;20471;-77
2021/04/05 13:17:09;;;;;;;1.25;1.15;;;4.70;99.90;;;;;;4816712;29;20409;-78
2021/04/05 13:19:39;;;;;;;1.90;0.80;;;4.70;99.90;;;;;;4817979;29;20940;-78
2021/04/05 13:22:13;;;;;;;1.00;1.00;;;4.70;99.90;;;;;;4820486;29;20476;-78
2021/04/05 13:24:41;;;;;;;1.00;1.00;;;4.50;99.90;;;;;;4833965;29;21924;-78
2021/04/05 13:27:06;;;;;;;0.80;0.80;;;4.50;99.90;;;;;;4832684;29;20416;-79